createdAt,value
2022-08-09T00:02:56.041Z,19.59
2022-08-09T00:06:23.792Z,19.56
2022-08-09T00:09:51.565Z,19.53
2022-08-09T00:13:19.013Z,19.50
2022-08-09T00:16:46.825Z,19.46
2022-08-09T00:20:15.562Z,19.43
2022-08-09T00:23:55.578Z,19.41
2022-08-09T00:27:30.524Z,19.39
2022-08-09T00:31:30.238Z,19.39
2022-08-09T00:34:52.954Z,19.40
2022-08-09T00:38:21.594Z,19.40
2022-08-09T00:44:19.481Z,19.40
2022-08-09T00:45:38.719Z,19.38
2022-08-09T00:49:20.718Z,19.36
2022-08-09T00:52:50.372Z,19.26
2022-08-09T00:56:20.513Z,19.20
2022-08-09T00:59:52.395Z,19.15
2022-08-09T01:03:28.538Z,19.08
2022-08-09T01:07:01.631Z,19.01
2022-08-09T01:10:36.636Z,18.96
2022-08-09T01:14:11.794Z,18.89
2022-08-09T01:17:47.522Z,18.83
2022-08-09T01:21:24.815Z,18.77
2022-08-09T01:25:12.366Z,18.72
2022-08-09T01:28:45.636Z,18.66
2022-08-09T01:32:31.927Z,18.63
2022-08-09T01:36:17.205Z,18.62
2022-08-09T01:39:49.291Z,18.62
2022-08-09T01:43:19.239Z,18.63
2022-08-09T01:46:53.166Z,18.66
2022-08-09T01:50:29.946Z,18.68
2022-08-09T01:54:07.269Z,18.72
2022-08-09T01:57:45.911Z,18.76
2022-08-09T02:01:20.282Z,18.79
2022-08-09T02:05:02.738Z,18.81
2022-08-09T02:08:57.602Z,18.81
2022-08-09T02:12:25.728Z,18.80
2022-08-09T02:15:56.747Z,18.78
2022-08-09T02:19:24.904Z,18.74
2022-08-09T02:23:12.181Z,18.67
2022-08-09T02:26:42.664Z,18.63
2022-08-09T02:30:12.630Z,18.60
2022-08-09T02:34:06.812Z,18.57
2022-08-09T02:37:38.529Z,18.55
2022-08-09T02:41:16.385Z,18.52
2022-08-09T02:44:49.144Z,18.51
2022-08-09T02:48:19.432Z,18.51
2022-08-09T02:52:03.736Z,18.53
2022-08-09T02:55:53.765Z,18.54
2022-08-09T02:59:26.507Z,18.57
2022-08-09T03:03:08.562Z,18.62
2022-08-09T03:06:41.553Z,18.66
2022-08-09T03:10:15.499Z,18.70
2022-08-09T03:13:59.254Z,18.71
2022-08-09T03:17:28.218Z,18.71
2022-08-09T03:20:58.242Z,18.68
2022-08-09T03:24:31.566Z,18.66
2022-08-09T03:28:15.920Z,18.61
2022-08-09T03:31:59.801Z,18.57
2022-08-09T03:35:44.163Z,18.51
2022-08-09T03:39:16.562Z,18.43
2022-08-09T03:42:45.028Z,18.39
2022-08-09T03:46:27.116Z,18.36
2022-08-09T03:49:58.879Z,18.33
2022-08-09T03:53:32.286Z,18.30
2022-08-09T03:57:18.389Z,18.29
2022-08-09T04:00:53.134Z,18.33
2022-08-09T04:04:24.625Z,18.36
2022-08-09T04:07:57.139Z,18.41
2022-08-09T04:11:26.773Z,18.46
2022-08-09T04:15:01.830Z,18.50
2022-08-09T04:18:32.777Z,18.53
2022-08-09T04:22:02.772Z,18.56
2022-08-09T04:25:30.273Z,18.59
2022-08-09T04:28:58.346Z,18.60
2022-08-09T04:32:33.767Z,18.58
2022-08-09T04:36:04.738Z,18.58
2022-08-09T04:39:40.582Z,18.56
2022-08-09T04:43:08.105Z,18.54
2022-08-09T04:46:37.338Z,18.52
2022-08-09T04:50:22.973Z,18.52
2022-08-09T04:53:59.300Z,18.51
2022-08-09T04:57:27.232Z,18.52
2022-08-09T05:01:16.243Z,18.55
2022-08-09T05:04:47.395Z,18.60
2022-08-09T05:08:15.208Z,18.65
2022-08-09T05:11:43.532Z,18.70
2022-08-09T05:15:38.541Z,18.76
2022-08-09T05:19:00.510Z,18.84
2022-08-09T05:22:54.222Z,18.90
2022-08-09T05:26:26.533Z,18.97
2022-08-09T05:30:03.863Z,19.02
2022-08-09T05:33:32.794Z,19.06
2022-08-09T05:37:01.773Z,19.11
2022-08-09T05:40:32.336Z,19.13
2022-08-09T05:43:59.555Z,19.18
2022-08-09T05:47:30.346Z,19.23
2022-08-09T05:51:29.783Z,19.27
2022-08-09T05:54:49.222Z,19.30
2022-08-09T05:58:18.390Z,19.34
2022-08-09T06:01:45.631Z,19.38
2022-08-09T06:05:16.307Z,19.44
2022-08-09T06:08:43.529Z,19.53
2022-08-09T06:12:19.816Z,19.61
2022-08-09T06:15:51.484Z,19.72
2022-08-09T06:19:23.031Z,19.85
2022-08-09T06:22:53.844Z,19.98
2022-08-09T06:26:28.635Z,20.10
2022-08-09T06:30:08.726Z,20.21
2022-08-09T06:33:42.177Z,20.31
2022-08-09T06:37:23.796Z,20.38
2022-08-09T06:40:59.213Z,20.43
2022-08-09T06:44:30.693Z,20.49
2022-08-09T06:48:01.529Z,20.55
2022-08-09T06:51:32.117Z,20.60
2022-08-09T06:55:00.701Z,20.65
2022-08-09T07:00:46.777Z,20.71
2022-08-09T07:02:30.802Z,20.75
2022-08-09T07:06:09.486Z,20.80
2022-08-09T07:09:55.252Z,20.89
2022-08-09T07:13:30.395Z,20.96
2022-08-09T07:16:58.605Z,21.06
2022-08-09T07:20:29.690Z,21.16
2022-08-09T07:24:00.784Z,21.24
2022-08-09T07:27:42.624Z,21.32
2022-08-09T07:31:10.893Z,21.41
2022-08-09T07:34:45.696Z,21.47
2022-08-09T07:38:17.356Z,21.54
2022-08-09T07:41:52.897Z,21.59
2022-08-09T07:45:38.114Z,21.66
2022-08-09T07:49:19.791Z,21.73
2022-08-09T07:52:48.996Z,21.77
2022-08-09T07:56:27.232Z,21.82
2022-08-09T08:00:02.747Z,21.88
2022-08-09T08:03:40.401Z,21.97
2022-08-09T08:07:57.278Z,22.03
2022-08-09T08:11:15.375Z,22.10
2022-08-09T08:14:48.023Z,22.19
2022-08-09T08:18:18.259Z,22.26
2022-08-09T08:21:52.617Z,22.31
2022-08-09T08:25:21.002Z,22.36
2022-08-09T08:28:50.900Z,22.44
2022-08-09T08:32:29.230Z,22.51
2022-08-09T08:36:03.532Z,22.58
2022-08-09T08:39:43.698Z,22.64
2022-08-09T08:43:13.898Z,22.68
2022-08-09T08:46:59.750Z,22.73
2022-08-09T08:50:34.227Z,22.75
2022-08-09T08:54:29.906Z,22.81
2022-08-09T08:58:01.570Z,22.90
2022-08-09T09:01:35.661Z,22.95
2022-08-09T09:05:57.600Z,22.99
2022-08-09T09:09:21.096Z,23.11
2022-08-09T09:13:09.296Z,23.21
2022-08-09T09:16:39.011Z,23.30
2022-08-09T09:20:16.208Z,23.36
2022-08-09T09:23:58.125Z,23.43
2022-08-09T09:28:06.150Z,23.52
2022-08-09T09:32:03.651Z,23.62
2022-08-09T09:35:15.851Z,23.73
2022-08-09T09:38:51.123Z,23.95
2022-08-09T09:42:28.342Z,24.14
2022-08-09T09:46:41.768Z,24.29
2022-08-09T09:50:14.497Z,24.37
2022-08-09T09:54:01.193Z,24.47
2022-08-09T09:58:03.390Z,24.54
2022-08-09T10:01:30.875Z,24.51
2022-08-09T10:05:15.037Z,24.65
2022-08-09T10:09:03.175Z,24.70
2022-08-09T10:12:57.433Z,24.74
2022-08-09T10:16:57.223Z,24.89
2022-08-09T10:20:35.631Z,25.04
2022-08-09T10:24:16.090Z,25.14
2022-08-09T10:27:56.851Z,25.19
2022-08-09T10:32:27.837Z,25.22
2022-08-09T10:35:14.805Z,25.33
2022-08-09T10:38:55.920Z,25.47
2022-08-09T10:42:29.705Z,25.59
2022-08-09T10:46:03.242Z,25.72
2022-08-09T10:49:51.720Z,25.85
2022-08-09T10:53:54.520Z,26.04
2022-08-09T10:57:23.769Z,26.22
2022-08-09T11:03:01.742Z,26.24
2022-08-09T11:04:55.576Z,26.28
2022-08-09T11:08:47.702Z,26.45
2022-08-09T11:12:20.218Z,26.58
2022-08-09T11:16:04.503Z,26.49
2022-08-09T11:20:12.026Z,26.40
2022-08-09T11:24:06.146Z,26.32
2022-08-09T11:28:05.583Z,26.42
2022-08-09T11:31:57.399Z,26.57
2022-08-09T11:35:49.630Z,26.85
2022-08-09T11:39:19.098Z,26.90
2022-08-09T11:42:53.055Z,26.99
2022-08-09T11:46:33.002Z,27.18
2022-08-09T11:50:56.228Z,27.34
2022-08-09T11:54:28.483Z,27.52
2022-08-09T11:58:06.094Z,27.58
2022-08-09T12:02:16.076Z,27.47
2022-08-09T12:05:37.988Z,27.33
2022-08-09T12:09:19.707Z,27.25
2022-08-09T12:12:52.758Z,27.22
2022-08-09T12:16:30.721Z,27.29
2022-08-09T12:20:21.853Z,27.24
2022-08-09T12:24:09.134Z,27.38
2022-08-09T12:29:15.213Z,27.85
2022-08-09T12:31:31.130Z,28.36
2022-08-09T12:35:22.276Z,28.83
2022-08-09T12:38:51.803Z,29.00
2022-08-09T12:42:22.963Z,29.01
2022-08-09T12:46:00.106Z,28.83
2022-08-09T12:49:31.095Z,28.59
2022-08-09T12:53:18.392Z,28.38
2022-08-09T12:56:56.770Z,28.20
2022-08-09T13:00:30.514Z,28.01
2022-08-09T13:04:02.569Z,27.89
2022-08-09T13:07:50.666Z,28.21
2022-08-09T13:11:30.424Z,28.61
2022-08-09T13:15:11.317Z,29.05
2022-08-09T13:18:53.861Z,29.59
2022-08-09T13:22:37.218Z,30.03
2022-08-09T13:26:36.976Z,30.31
2022-08-09T13:30:50.763Z,30.58
2022-08-09T13:34:00.242Z,30.42
2022-08-09T13:37:52.176Z,30.06
2022-08-09T13:41:59.138Z,29.68
2022-08-09T13:45:21.161Z,29.29
2022-08-09T13:48:50.781Z,28.97
2022-08-09T13:52:22.506Z,28.70
2022-08-09T13:55:53.706Z,28.44
2022-08-09T13:59:25.373Z,28.17
2022-08-09T14:03:57.771Z,27.90
2022-08-09T14:06:54.926Z,27.60
2022-08-09T14:10:37.596Z,27.33
2022-08-09T14:14:26.142Z,27.09
2022-08-09T14:18:16.610Z,26.84
2022-08-09T14:21:48.333Z,26.58
2022-08-09T14:25:19.406Z,26.32
2022-08-09T14:28:53.324Z,26.09
2022-08-09T14:32:28.717Z,25.87
2022-08-09T14:35:59.318Z,25.74
2022-08-09T14:39:50.768Z,25.61
2022-08-09T14:43:19.084Z,25.50
2022-08-09T14:47:01.474Z,25.39
2022-08-09T14:50:36.877Z,25.28
2022-08-09T14:54:04.998Z,25.17
2022-08-09T14:57:43.123Z,25.07
2022-08-09T15:01:11.449Z,24.99
2022-08-09T15:04:40.552Z,24.92
2022-08-09T15:08:10.291Z,24.77
2022-08-09T15:11:38.505Z,24.63
2022-08-09T15:15:08.937Z,24.50
2022-08-09T15:18:37.680Z,24.38
2022-08-09T15:22:06.515Z,24.24
2022-08-09T15:25:40.788Z,24.21
2022-08-09T15:29:09.727Z,24.17
2022-08-09T15:32:59.352Z,24.07
2022-08-09T15:36:31.410Z,24.02
2022-08-09T15:39:58.901Z,24.04
2022-08-09T15:43:29.919Z,24.09
2022-08-09T15:47:05.193Z,24.12
2022-08-09T15:50:32.724Z,24.12
2022-08-09T15:54:03.927Z,24.14
2022-08-09T15:57:44.329Z,24.16
2022-08-09T16:01:17.830Z,24.21
2022-08-09T16:04:46.488Z,24.27
2022-08-09T16:08:30.599Z,24.34
2022-08-09T16:11:59.971Z,24.35
2022-08-09T16:16:04.562Z,24.34
2022-08-09T16:19:20.650Z,24.32
2022-08-09T16:22:52.627Z,24.28
2022-08-09T16:26:35.273Z,24.29
2022-08-09T16:30:06.798Z,24.27
2022-08-09T16:33:38.783Z,24.23
2022-08-09T16:37:08.134Z,24.22
2022-08-09T16:40:41.818Z,24.19
2022-08-09T16:44:11.186Z,24.19
2022-08-09T16:48:38.471Z,24.16
2022-08-09T16:51:29.750Z,24.14
2022-08-09T16:54:57.347Z,24.13
2022-08-09T16:58:26.262Z,24.10
2022-08-09T17:01:55.145Z,24.03
2022-08-09T17:06:08.093Z,23.95
2022-08-09T17:09:45.764Z,23.84
2022-08-09T17:13:03.526Z,23.73
2022-08-09T17:16:38.236Z,23.65
2022-08-09T17:20:29.826Z,23.57
2022-08-09T17:24:21.066Z,23.50
2022-08-09T17:27:49.608Z,23.44
2022-08-09T17:31:22.335Z,23.38
2022-08-09T17:35:10.424Z,23.33
2022-08-09T17:38:39.547Z,23.25
2022-08-09T17:42:13.577Z,23.17
2022-08-09T17:46:02.606Z,23.10
2022-08-09T17:49:33.680Z,23.04
2022-08-09T17:53:02.524Z,22.97
2022-08-09T17:56:35.990Z,22.91
2022-08-09T18:00:05.787Z,22.82
2022-08-09T18:03:40.666Z,22.72
2022-08-09T18:07:09.524Z,22.61
2022-08-09T18:11:02.210Z,22.49
2022-08-09T18:14:32.387Z,22.36
2022-08-09T18:18:08.170Z,22.23
2022-08-09T18:21:41.530Z,22.09
2022-08-09T18:25:14.461Z,22.00
2022-08-09T18:30:40.346Z,21.90
2022-08-09T18:32:39.442Z,21.81
2022-08-09T18:36:14.357Z,21.71
2022-08-09T18:39:57.681Z,21.57
2022-08-09T18:43:27.085Z,21.43
2022-08-09T18:47:03.366Z,21.28
2022-08-09T18:50:34.902Z,21.15
2022-08-09T18:54:16.529Z,21.02
2022-08-09T18:57:49.512Z,20.87
2022-08-09T19:01:26.293Z,20.71
2022-08-09T19:05:04.279Z,20.58
2022-08-09T19:08:55.330Z,20.43
2022-08-09T19:12:37.282Z,20.31
2022-08-09T19:16:09.754Z,20.20
2022-08-09T19:19:52.325Z,20.12
2022-08-09T19:24:31.573Z,20.05
2022-08-09T19:27:34.141Z,19.95
2022-08-09T19:31:07.760Z,19.80
2022-08-09T19:34:49.619Z,19.73
2022-08-09T19:38:25.532Z,19.70
2022-08-09T19:41:59.482Z,19.67
2022-08-09T19:45:40.186Z,19.66
2022-08-09T19:50:06.793Z,19.63
2022-08-09T19:53:06.218Z,19.59
2022-08-09T19:56:44.558Z,19.58
2022-08-09T20:00:21.400Z,19.56
2022-08-09T20:04:10.848Z,19.55
2022-08-09T20:07:58.742Z,19.50
2022-08-09T20:11:42.892Z,19.44
2022-08-09T20:16:35.774Z,19.38
2022-08-09T20:19:47.491Z,19.33
2022-08-09T20:23:01.268Z,19.29
2022-08-09T20:26:34.418Z,19.25
2022-08-09T20:30:07.717Z,19.23
2022-08-09T20:33:52.493Z,19.22
2022-08-09T20:38:23.902Z,19.21
2022-08-09T20:41:38.826Z,19.20
2022-08-09T20:46:00.077Z,19.18
2022-08-09T20:49:15.874Z,19.13
2022-08-09T20:52:48.978Z,19.09
2022-08-09T20:56:26.343Z,19.03
2022-08-09T21:00:30.778Z,18.97
2022-08-09T21:04:08.065Z,18.88
2022-08-09T21:07:44.999Z,18.78
2022-08-09T21:15:12.599Z,18.60
2022-08-09T21:19:01.454Z,18.53
2022-08-09T21:22:38.604Z,18.51
2022-08-09T21:26:08.866Z,18.50
2022-08-09T21:29:49.500Z,18.46
2022-08-09T21:33:19.641Z,18.42
2022-08-09T21:36:55.839Z,18.40
2022-08-09T21:40:30.712Z,18.37
2022-08-09T21:44:02.875Z,18.37
2022-08-09T21:47:35.193Z,18.33
2022-08-09T21:51:13.459Z,18.23
2022-08-09T21:54:49.697Z,18.13
2022-08-09T21:58:31.106Z,18.03
2022-08-09T22:02:01.039Z,17.98
2022-08-09T22:05:35.552Z,17.98
2022-08-09T22:09:05.962Z,17.98
2022-08-09T22:12:40.710Z,17.93
2022-08-09T22:16:18.016Z,17.83
2022-08-09T22:19:58.589Z,17.77
2022-08-09T22:23:35.566Z,17.76
2022-08-09T22:27:18.785Z,17.75
2022-08-09T22:30:48.810Z,17.72
2022-08-09T22:34:16.905Z,17.68
2022-08-09T22:37:48.219Z,17.66
2022-08-09T22:41:34.845Z,17.66
2022-08-09T22:48:12.675Z,17.66
2022-08-09T22:48:50.672Z,17.66
2022-08-09T22:52:19.741Z,17.66
2022-08-09T22:56:30.604Z,17.66
2022-08-09T22:59:58.289Z,17.69
2022-08-09T23:04:02.371Z,17.68
2022-08-09T23:08:09.425Z,17.68
2022-08-09T23:11:17.357Z,17.64
2022-08-09T23:14:46.510Z,17.56
2022-08-09T23:18:14.337Z,17.47
2022-08-09T23:21:43.021Z,17.38
2022-08-09T23:25:12.152Z,17.29
2022-08-09T23:28:40.118Z,17.19
2022-08-09T23:32:08.047Z,17.12
2022-08-09T23:36:07.032Z,17.04
2022-08-09T23:39:23.047Z,16.98
2022-08-09T23:42:51.982Z,16.94
2022-08-09T23:46:19.348Z,16.90
2022-08-09T23:49:48.410Z,16.88
2022-08-09T23:53:17.245Z,16.90
2022-08-09T23:56:54.043Z,16.91
